Bei Facebook empfehlenBei Twitter postenGoogle plusPinterest

Das Wetter im Erzgebirge am 25.10.2015

Wetter und Klima am 25.10.2015 Holzhau im Erzgebirge (630m ü.NN)
Letzte gemessene Temperatur und Uhrzeit der Messung23:45:00 Uhr7.80 °C
Temperatur (Maximum / Höchstwert) und Uhrzeit der Messung15:15:00 Uhr10.20 °C
Temperatur (Minimum / Tiefstwert) und Uhrzeit der Messung02:45:002.90 °C
Errechneter Absolutwert der Temperaturschwankungen zwischen Tmin und Tmax des Tages7.30 K
Errechnete Tagesmitteltemperatur7.40313 °C
Gesamt - Niederschlag des Tages (in flüssiger Form)0.52 Liter / m²
Luftdruck (Maximum / Höchstwert) und Zeitpunkt der Messung22:30:00 Uhr1022.90 hPa
Luftdruck (Minimum / Tiefstwert) und Zeitpunkt der Messung01:45:00 Uhr1014.50 hPa
Errechneter Absolutwert der Luftdruckschwankungen des Tages8.40 hPa
Höchste gemessene Windgeschwindigkeit und Uhrzeit der Messung11:30:00 Uhr10.44 km/h
Errechnete Windhäufigkeit in Relation zu den Messwerten des Tages6.25000 %
Niedrigste Windkühle (Windchill) und Zeitpunkt der Messung02:45:00 Uhr2.90 °C
Taupunkt (Maximum / Höchstwert) und Uhrzeit der Messung15:00:00 Uhr9.10 °C
Taupunkt (Minimum / Tiefstwert) und Uhrzeit der Messung02:30:001.70 °C
Anzahl der automatisch eingelesenen Messwerte 96

Detaillierte Wetter- und Klima- Messwerte für den 25.10.2015 in Holzhau im Erzgebirge (630m ü.NN)
ZeitTemperaturLuftdruckRel. LuftfeuchteWindWindrichtungWindchillTaupunktNiederschlag l/m²
23:45:007.80 °C1022.50 hPa94.00 %6.90 °C0.52
23:30:007.80 °C1022.70 hPa93.00 %6.70 °C0.52
23:15:007.90 °C1022.80 hPa93.00 %6.80 °C0.52
23:00:007.90 °C1022.80 hPa93.00 %6.80 °C0.52
22:45:007.80 °C1022.80 hPa93.00 %6.70 °C0.52
22:30:007.80 °C1022.90 hPa93.00 %6.70 °C0.52
22:15:007.80 °C1022.80 hPa93.00 %6.70 °C0.52
22:00:007.80 °C1022.70 hPa93.00 %6.70 °C0.52
21:45:007.90 °C1022.70 hPa93.00 %6.80 °C0.52
21:30:007.90 °C1022.50 hPa93.00 %6.80 °C 
21:15:007.90 °C1022.70 hPa93.00 %6.80 °C 
21:00:007.90 °C1022.60 hPa92.00 %6.70 °C 
20:45:007.90 °C1022.30 hPa92.00 %6.70 °C 
20:30:007.90 °C1022.20 hPa92.00 %6.70 °C 
20:15:008.10 °C1022.00 hPa92.00 %6.90 °C 
20:00:008.20 °C1021.90 hPa91.00 %6.80 °C 
19:45:008.30 °C1021.60 hPa91.00 %6.90 °C 
19:30:008.20 °C1021.40 hPa91.00 %4.32 km/hSW8.20 °C6.80 °C 
19:15:008.20 °C1021.40 hPa91.00 %6.80 °C 
19:00:008.20 °C1021.30 hPa91.00 %6.80 °C 
18:45:008.20 °C1021.10 hPa91.00 %6.80 °C 
18:30:008.20 °C1021.00 hPa90.00 %6.70 °C 
18:15:008.40 °C1020.80 hPa90.00 %6.90 °C 
18:00:008.60 °C1020.80 hPa90.00 %7.10 °C 
17:45:008.90 °C1020.70 hPa89.00 %7.20 °C 
17:30:008.90 °C1020.60 hPa89.00 %7.20 °C 
17:15:009.20 °C1020.40 hPa89.00 %7.50 °C 
17:00:009.40 °C1020.60 hPa90.00 %7.80 °C 
16:45:009.60 °C1020.00 hPa90.00 %8.00 °C 
16:30:009.80 °C1019.70 hPa90.00 %8.20 °C 
16:15:009.80 °C1019.80 hPa90.00 %8.20 °C 
16:00:009.50 °C1019.90 hPa91.00 %8.10 °C 
15:45:009.60 °C1019.90 hPa91.00 %8.20 °C 
15:30:009.90 °C1019.60 hPa91.00 %8.50 °C 
15:15:0010.20 °C1019.50 hPa92.00 %9.00 °C 
15:00:0010.20 °C1019.30 hPa93.00 %9.10 °C 
14:45:0010.10 °C1019.30 hPa93.00 %3.96 km/hWNW10.10 °C9.00 °C 
14:30:0010.00 °C1019.10 hPa93.00 %7.92 km/hWNW9.00 °C8.90 °C 
14:15:009.80 °C1019.00 hPa94.00 %8.90 °C 
14:00:009.50 °C1019.10 hPa94.00 %8.60 °C 
13:45:009.20 °C1018.90 hPa94.00 %3.96 km/hWNW9.20 °C8.30 °C 
13:30:009.10 °C1018.80 hPa94.00 %8.20 °C 
13:15:008.90 °C1018.90 hPa95.00 %8.10 °C 
13:00:008.80 °C1018.90 hPa95.00 %8.00 °C 
12:45:008.90 °C1018.90 hPa95.00 %8.10 °C 
12:30:008.90 °C1018.60 hPa95.00 %4.68 km/hWNW8.90 °C8.10 °C 
12:15:008.90 °C1018.60 hPa95.00 %8.10 °C 
12:00:009.10 °C1018.30 hPa95.00 %8.30 °C 
11:45:009.10 °C1018.30 hPa95.00 %8.30 °C 
11:30:008.90 °C1018.00 hPa95.00 %10.44 km/hW7.20 °C8.10 °C 
11:15:008.70 °C1018.10 hPa95.00 %7.90 °C 
11:00:008.70 °C1018.00 hPa95.00 %7.90 °C 
10:45:008.60 °C1018.00 hPa95.00 %7.80 °C 
10:30:008.50 °C1018.00 hPa95.00 %7.70 °C 
10:15:008.40 °C1018.00 hPa95.00 %7.60 °C 
10:00:007.90 °C1017.70 hPa95.00 %7.10 °C 
09:45:007.80 °C1017.70 hPa95.00 %7.10 °C 
09:30:007.50 °C1017.50 hPa95.00 %6.80 °C 
09:15:007.40 °C1017.30 hPa95.00 %6.70 °C 
09:00:007.30 °C1017.00 hPa95.00 %6.60 °C 
08:45:007.30 °C1017.00 hPa95.00 %6.60 °C 
08:30:007.30 °C1016.80 hPa95.00 %6.60 °C 
08:15:007.30 °C1016.60 hPa95.00 %6.60 °C 
08:00:007.30 °C1016.20 hPa95.00 %6.60 °C 
07:45:007.30 °C1016.00 hPa95.00 %6.60 °C 
07:30:007.20 °C1016.00 hPa95.00 %6.50 °C 
07:15:007.20 °C1016.00 hPa95.00 %6.50 °C 
07:00:007.20 °C1015.70 hPa95.00 %6.50 °C 
06:45:007.20 °C1015.80 hPa95.00 %6.50 °C 
06:30:007.20 °C1015.70 hPa95.00 %6.50 °C 
06:15:007.20 °C1015.60 hPa94.00 %6.30 °C 
06:00:007.10 °C1015.40 hPa94.00 %6.20 °C 
05:45:006.90 °C1015.60 hPa94.00 %6.00 °C 
05:30:006.80 °C1015.30 hPa94.00 %5.90 °C 
05:15:006.60 °C1015.10 hPa94.00 %5.70 °C 
05:00:006.40 °C1015.10 hPa94.00 %5.50 °C 
04:45:006.20 °C1015.00 hPa94.00 %5.30 °C 
04:30:006.00 °C1014.80 hPa94.00 %5.10 °C 
04:15:005.50 °C1015.00 hPa94.00 %4.60 °C 
04:00:005.10 °C1014.80 hPa94.00 %4.20 °C 
03:45:004.60 °C1015.10 hPa94.00 %3.70 °C 
03:30:004.40 °C1015.20 hPa94.00 %3.50 °C 
03:15:004.30 °C1015.30 hPa94.00 %3.40 °C 
03:00:004.10 °C1015.20 hPa94.00 %3.20 °C 
02:45:002.90 °C1015.10 hPa93.00 %1.90 °C 
02:30:002.90 °C1014.90 hPa92.00 %1.70 °C 
02:15:003.10 °C1014.70 hPa92.00 %1.90 °C 
02:00:003.20 °C1015.00 hPa93.00 %2.20 °C 
01:45:003.10 °C1014.50 hPa92.00 %1.90 °C 
01:30:003.20 °C1014.70 hPa92.00 %2.00 °C 
01:15:003.40 °C1014.70 hPa91.00 %2.10 °C 
01:00:003.50 °C1014.70 hPa91.00 %2.20 °C 
00:45:003.50 °C1014.70 hPa91.00 %2.20 °C 
00:30:003.40 °C1014.50 hPa91.00 %2.10 °C 
00:15:003.50 °C1014.60 hPa91.00 %2.20 °C 
00:00:003.70 °C1014.70 hPa90.00 %2.20 °C 

Permanenter Link zu dieser Seite: Wetter im Erzgebirge am 25.10.2015
Performance-Info: Die Erstellung der Seite / Statistik(en) / Tabelle(n) erforderte 5 Datenbankserver-Abfrage(n) und dauerte 101 Millisekunden. (Dieser Messwert ist von der Gesamt-Auslastung des Servers abhängig.)
Erzgebirge - Wetter | Erzgebirge - Wetter (Mobilgeräte) | Komplette Klimadatenbank